Time;durP1;ratioP1;P1;durP2;ratioP2;P2;SDS_P1;SDS_P2;PMS_P1;PMS_P2;Temp;Humidity;BMP_temperature;BMP_pressure;BME280_temperature;BME280_humidity;BME280_pressure;Samples;Min_cycle;Max_cycle;Signal;HPM_P1;HPM_P2
2022/01/09 00:00:13;;;;;;;2.28;1.00;;;;;;;1.00;89.15;95342.28;5041133;28;20045;-64
2022/01/09 00:02:40;;;;;;;1.98;1.10;;;;;;;0.96;89.52;95333.94;5028095;28;20385;-62
2022/01/09 00:05:08;;;;;;;2.17;1.20;;;;;;;0.96;89.35;95328.59;5036647;28;20037;-63
2022/01/09 00:07:37;;;;;;;2.42;1.13;;;;;;;0.98;89.27;95323.03;5033758;28;20448;-63
2022/01/09 00:10:05;;;;;;;1.75;0.93;;;;;;;0.93;89.52;95309.63;5028438;28;20049;-61
2022/01/09 00:12:31;;;;;;;2.05;0.85;;;;;;;0.85;89.61;95310.84;5031742;28;20647;-61
2022/01/09 00:14:58;;;;;;;1.80;1.13;;;;;;;0.84;90.02;95296.72;5035285;28;20041;-62
2022/01/09 00:17:25;;;;;;;0.80;0.55;;;;;;;0.80;89.77;95295.56;5026791;28;20049;-62
2022/01/09 00:19:51;;;;;;;2.53;1.10;;;;;;;0.74;89.36;95272.56;5043959;28;20523;-61
2022/01/09 00:22:26;;;;;;;1.65;1.00;;;;;;;0.71;89.88;95289.03;5028781;28;20045;-63
2022/01/09 00:24:53;;;;;;;1.63;1.05;;;;;;;0.75;90.02;95274.19;5027218;28;20048;-62
2022/01/09 00:27:19;;;;;;;2.58;1.05;;;;;;;0.74;90.21;95269.91;5035021;28;20062;-62
2022/01/09 00:29:46;;;;;;;1.88;1.05;;;;;;;0.79;90.41;95277.97;5036793;28;20049;-62
2022/01/09 00:32:12;;;;;;;3.20;1.50;;;;;;;0.77;90.31;95266.75;5028852;28;20401;-63
2022/01/09 00:34:39;;;;;;;2.67;1.10;;;;;;;0.80;90.82;95271.59;5036408;28;20076;-62
2022/01/09 00:37:06;;;;;;;1.95;1.10;;;;;;;0.82;90.22;95260.69;5035113;28;20479;-62
2022/01/09 00:39:32;;;;;;;2.30;1.00;;;;;;;0.81;90.44;95251.09;5045570;28;20045;-62
2022/01/09 00:42:00;;;;;;;1.35;0.90;;;;;;;0.84;90.66;95261.25;5020991;28;20104;-62
2022/01/09 00:44:26;;;;;;;2.58;1.10;;;;;;;0.89;90.18;95256.03;5031552;28;20041;-61
2022/01/09 00:46:56;;;;;;;1.65;0.80;;;;;;;0.97;89.80;95250.28;5032395;28;20033;-62
2022/01/09 00:49:23;;;;;;;0.77;0.55;;;;;;;0.94;90.36;95244.63;5033814;28;20505;-62
2022/01/09 00:51:49;;;;;;;3.15;0.90;;;;;;;0.93;90.31;95245.69;5027319;28;20103;-62
2022/01/09 00:54:16;;;;;;;1.10;0.60;;;;;;;0.91;90.22;95237.94;5024846;28;20042;-62
2022/01/09 00:56:43;;;;;;;2.95;1.02;;;;;;;0.89;90.62;95235.50;5028435;28;20044;-62
2022/01/09 00:59:09;;;;;;;1.17;0.80;;;;;;;0.89;90.19;95230.19;5033865;28;20036;-62
2022/01/09 01:01:36;;;;;;;1.00;0.70;;;;;;;0.89;90.09;95232.06;5030970;28;20491;-61
2022/01/09 01:04:02;;;;;;;1.02;0.85;;;;;;;0.95;90.34;95220.41;5041793;28;20052;-63
2022/01/09 01:06:29;;;;;;;1.40;0.65;;;;;;;0.94;89.63;95218.78;5033821;28;20045;-62
2022/01/09 01:08:56;;;;;;;1.55;0.73;;;;;;;0.91;90.46;95227.28;5035488;28;20049;-62
2022/01/09 01:11:23;;;;;;;1.30;0.90;;;;;;;0.96;89.65;95231.88;5033720;28;20049;-63
2022/01/09 01:13:50;;;;;;;1.77;0.70;;;;;;;0.95;90.08;95214.28;5034632;28;20068;-63
2022/01/09 01:16:17;;;;;;;0.60;0.60;;;;;;;0.97;90.17;95223.66;5043944;28;20037;-63
2022/01/09 01:18:45;;;;;;;1.02;0.63;;;;;;;0.93;90.29;95216.38;5032488;28;20071;-64
2022/01/09 01:21:12;;;;;;;0.68;0.50;;;;;;;0.97;89.90;95228.16;5042599;28;20064;-63
2022/01/09 01:23:39;;;;;;;1.23;0.70;;;;;;;0.94;90.45;95236.63;5029204;28;20045;-64
2022/01/09 01:26:06;;;;;;;0.63;0.40;;;;;;;1.03;89.73;95232.50;5028607;28;20519;-63
2022/01/09 01:28:33;;;;;;;2.47;0.80;;;;;;;1.04;89.58;95236.81;5032862;28;20056;-64
2022/01/09 01:31:00;;;;;;;1.58;0.70;;;;;;;1.03;89.65;95232.50;5029285;28;20046;-64
2022/01/09 01:33:26;;;;;;;1.00;0.60;;;;;;;1.04;89.59;95232.25;5027453;28;20041;-63
2022/01/09 01:35:53;;;;;;;0.68;0.57;;;;;;;1.09;89.47;95228.88;5028145;28;20522;-64
2022/01/09 01:38:19;;;;;;;1.35;0.65;;;;;;;1.08;nan;95219.28;5039390;28;20044;-63
2022/01/09 01:40:46;;;;;;;0.90;0.70;;;;;;;1.11;89.81;95228.63;5034756;28;20096;-63
2022/01/09 01:43:13;;;;;;;1.67;0.90;;;;;;;1.13;90.27;95210.53;5046049;28;20052;-63
2022/01/09 01:45:40;;;;;;;0.95;0.65;;;;;;;1.13;89.87;95219.34;5030570;28;20131;-63
2022/01/09 01:48:06;;;;;;;1.05;0.60;;;;;;;1.18;89.78;95213.25;5030684;28;20041;-63
2022/01/09 01:50:37;;;;;;;1.02;0.73;;;;;;;1.22;89.75;95205.59;5026462;28;20037;-63
2022/01/09 01:53:07;;;;;;;0.80;0.57;;;;;;;1.24;89.56;95206.97;5028683;28;20041;-63
2022/01/09 01:55:38;;;;;;;1.08;0.63;;;;;;;1.20;89.76;95192.50;5038685;28;20275;-64
2022/01/09 01:58:07;;;;;;;1.25;0.55;;;;;;;1.28;89.55;95205.41;5043108;28;20094;-64
2022/01/09 02:00:34;;;;;;;1.70;0.82;;;;;;;1.28;89.77;95209.94;5029502;28;20060;-63
2022/01/09 02:03:00;;;;;;;0.88;0.50;;;;;;;1.32;89.37;95200.38;5036930;28;20668;-64
2022/01/09 02:05:27;;;;;;;0.60;0.45;;;;;;;1.38;89.22;95204.75;5030933;28;20026;-64
2022/01/09 02:07:54;;;;;;;1.13;0.65;;;;;;;1.36;89.58;95209.50;5030119;28;20520;-64
2022/01/09 02:10:20;;;;;;;0.68;0.45;;;;;;;1.36;89.55;95203.38;5032989;28;20120;-64
2022/01/09 02:12:49;;;;;;;0.60;0.38;;;;;;;1.34;89.77;95216.13;5038973;28;20424;-64
2022/01/09 02:15:45;;;;;;;0.68;0.50;;;;;;;1.39;89.93;95209.03;5036254;28;20048;-64
2022/01/09 02:18:18;;;;;;;0.90;0.57;;;;;;;1.43;90.25;95220.81;5029655;28;20069;-63
2022/01/09 02:20:46;;;;;;;0.52;0.40;;;;;;;1.47;90.08;95223.00;5038015;28;20055;-63
2022/01/09 02:23:15;;;;;;;0.75;0.50;;;;;;;1.53;89.86;95219.31;5035606;28;20052;-64
2022/01/09 02:25:43;;;;;;;0.75;0.50;;;;;;;1.57;89.94;95225.78;5032842;28;20033;-64
2022/01/09 02:28:12;;;;;;;1.08;0.60;;;;;;;1.60;89.83;95219.94;5044044;28;20520;-64
2022/01/09 02:30:39;;;;;;;1.25;0.57;;;;;;;1.56;89.82;95227.63;5030105;28;20038;-64
2022/01/09 02:33:08;;;;;;;0.70;0.50;;;;;;;1.54;90.03;95229.75;5024266;28;20041;-64
2022/01/09 02:35:36;;;;;;;0.77;0.43;;;;;;;1.55;89.77;95230.56;5035114;28;20559;-64
2022/01/09 02:38:05;;;;;;;2.95;0.60;;;;;;;1.62;89.72;95239.16;5032467;28;20041;-64
2022/01/09 02:40:32;;;;;;;0.82;0.47;;;;;;;1.59;90.02;95234.34;5036719;28;20038;-64
2022/01/09 02:42:59;;;;;;;1.92;0.43;;;;;;;1.59;89.84;95234.34;5039518;28;20040;-64
2022/01/09 02:45:27;;;;;;;0.38;0.30;;;;;;;1.66;89.75;95239.50;5038358;28;20038;-64
2022/01/09 02:47:57;;;;;;;1.20;0.43;;;;;;;1.82;89.11;95243.16;5036477;28;20045;-64
2022/01/09 02:52:55;;;;;;;0.63;0.30;;;;;;;2.06;88.86;95242.88;5025676;28;20129;-63
2022/01/09 02:55:24;;;;;;;0.40;0.40;;;;;;;2.16;88.13;95251.00;5008146;28;20048;-64
2022/01/09 02:57:53;;;;;;;0.20;0.20;;;;;;;2.15;88.80;95253.94;5025543;28;20045;-63
2022/01/09 03:00:27;;;;;;;0.65;0.30;;;;;;;2.21;88.28;95256.41;5033631;28;20064;-61
2022/01/09 03:02:55;;;;;;;0.35;0.28;;;;;;;2.19;88.74;95271.06;5029572;28;20042;-63
2022/01/09 03:05:22;;;;;;;0.30;0.20;;;;;;;2.24;88.74;95259.66;5028064;28;20029;-63
2022/01/09 03:07:49;;;;;;;0.20;0.20;;;;;;;2.26;88.71;95265.53;5026659;28;20512;-63
2022/01/09 03:10:18;;;;;;;0.90;0.30;;;;;;;2.17;89.28;95263.31;5030591;28;20048;-64
2022/01/09 03:12:45;;;;;;;0.35;0.30;;;;;;;2.18;89.17;95262.22;5036017;28;20044;-61
2022/01/09 03:15:12;;;;;;;0.98;0.30;;;;;;;2.19;89.46;95273.72;5038933;28;20044;-61
2022/01/09 03:17:40;;;;;;;0.47;0.30;;;;;;;2.13;89.85;95278.19;5041551;28;20466;-61
2022/01/09 03:20:11;;;;;;;1.45;0.38;;;;;;;2.14;89.58;95277.13;5032557;28;20539;-62
2022/01/09 03:22:38;;;;;;;0.55;0.32;;;;;;;2.16;89.60;95280.38;5034770;28;20574;-62
2022/01/09 03:25:05;;;;;;;0.60;0.30;;;;;;;2.19;89.43;95274.56;5034153;28;20060;-62
2022/01/09 03:27:32;;;;;;;0.47;0.40;;;;;;;2.14;90.08;95276.34;5031046;28;20054;-62
2022/01/09 03:29:59;;;;;;;0.30;0.20;;;;;;;2.14;90.06;95277.13;5025178;28;20048;-62
2022/01/09 03:32:26;;;;;;;0.47;0.20;;;;;;;2.13;90.34;95275.53;5029125;28;20117;-62
2022/01/09 03:34:52;;;;;;;0.35;0.30;;;;;;;2.13;90.50;95274.75;5028455;28;20038;-62
2022/01/09 03:37:19;;;;;;;0.73;0.22;;;;;;;2.15;90.17;95269.94;5027991;28;20048;-62
2022/01/09 03:39:45;;;;;;;0.30;0.30;;;;;;;2.18;89.90;95283.59;5024853;28;20037;-62
2022/01/09 03:42:12;;;;;;;0.38;0.22;;;;;;;2.28;89.40;95288.25;5030284;28;20043;-61
2022/01/09 03:44:39;;;;;;;0.77;0.30;;;;;;;2.31;89.10;95289.59;5033532;28;20052;-62
2022/01/09 03:47:06;;;;;;;1.23;0.20;;;;;;;2.30;89.59;95283.47;5037694;28;20059;-62
2022/01/09 03:49:33;;;;;;;0.20;0.20;;;;;;;2.40;89.13;95295.31;5032820;28;20068;-62
2022/01/09 03:52:00;;;;;;;0.40;0.30;;;;;;;2.40;88.98;95288.09;5036962;28;20049;-62
2022/01/09 03:54:27;;;;;;;0.60;0.30;;;;;;;2.44;89.01;95291.09;5032065;28;20064;-62
2022/01/09 03:56:53;;;;;;;0.20;0.20;;;;;;;2.44;88.45;95294.56;5027794;28;20038;-61
2022/01/09 03:59:20;;;;;;;0.20;0.20;;;;;;;2.47;88.81;95299.41;5006303;28;20058;-62
2022/01/09 04:01:47;;;;;;;1.55;0.30;;;;;;;2.47;88.65;95299.41;5024459;28;20050;-62
2022/01/09 04:04:14;;;;;;;0.25;0.15;;;;;;;2.44;88.67;95310.56;5035714;28;20041;-62
2022/01/09 04:06:46;;;;;;;0.38;0.20;;;;;;;2.47;88.68;95310.09;5036846;28;20493;-62
2022/01/09 04:09:21;;;;;;;0.20;0.20;;;;;;;2.49;88.49;95322.38;5031835;28;20041;-61
2022/01/09 04:11:48;;;;;;;0.20;0.20;;;;;;;2.53;88.70;95326.16;5025832;28;20053;-62
2022/01/09 04:14:15;;;;;;;0.20;0.20;;;;;;;2.50;88.24;95332.03;5019584;28;20643;-61
2022/01/09 04:16:42;;;;;;;0.32;0.20;;;;;;;2.50;88.53;95342.72;5035785;28;20037;-62
2022/01/09 04:19:12;;;;;;;0.20;0.20;;;;;;;2.58;88.22;95345.72;5044947;28;20041;-61
2022/01/09 04:21:42;;;;;;;0.10;0.10;;;;;;;2.58;87.84;95358.31;5030202;28;20132;-61
2022/01/09 04:24:10;;;;;;;0.20;0.20;;;;;;;2.54;88.09;95370.53;5032560;28;20064;-61
2022/01/09 04:26:37;;;;;;;0.65;0.20;;;;;;;2.50;88.13;95385.47;5030297;28;20038;-61
2022/01/09 04:29:05;;;;;;;0.93;0.20;;;;;;;2.46;88.58;95404.66;5037487;28;20142;-61
2022/01/09 04:31:32;;;;;;;0.10;0.10;;;;;;;2.32;88.25;95422.13;5034888;28;20061;-61
2022/01/09 04:33:59;;;;;;;0.10;0.10;;;;;;;2.24;88.87;95433.22;5037513;28;20675;-60
2022/01/09 04:36:26;;;;;;;0.13;0.10;;;;;;;2.19;89.40;95431.28;5040199;28;20037;-63
2022/01/09 04:38:54;;;;;;;0.20;0.10;;;;;;;2.14;88.62;95453.38;5038841;28;20049;-63
2022/01/09 04:41:21;;;;;;;0.10;0.10;;;;;;;2.03;88.77;95452.41;5039015;28;20548;-64
2022/01/09 04:43:49;;;;;;;0.10;0.10;;;;;;;1.99;88.91;95467.28;5037217;28;20493;-64
2022/01/09 04:46:22;;;;;;;0.10;0.10;;;;;;;1.90;88.75;95456.25;5032834;28;20041;-63
2022/01/09 04:48:52;;;;;;;1.45;0.10;;;;;;;1.95;88.37;95464.31;5030031;28;20048;-63
2022/01/09 04:51:19;;;;;;;0.15;0.10;;;;;;;1.98;88.23;95487.03;5027805;28;20048;-62
2022/01/09 04:53:45;;;;;;;0.10;0.10;;;;;;;1.91;88.34;95481.88;5037560;28;20037;-63
2022/01/09 04:56:12;;;;;;;0.10;0.10;;;;;;;1.92;88.77;95493.38;5033152;28;20029;-62
2022/01/09 04:58:38;;;;;;;0.10;0.10;;;;;;;1.81;88.04;95497.72;5028282;28;20045;-62
2022/01/09 05:01:05;;;;;;;0.10;0.10;;;;;;;1.71;88.26;95513.56;5035392;28;20033;-62
2022/01/09 05:03:32;;;;;;;0.30;0.20;;;;;;;1.63;88.67;95520.94;5038083;28;20148;-62
2022/01/09 05:05:58;;;;;;;0.20;0.20;;;;;;;1.65;89.12;95531.34;5037516;28;20068;-62
2022/01/09 05:08:25;;;;;;;0.55;0.20;;;;;;;1.57;88.56;95532.53;5039916;28;20041;-63
2022/01/09 05:10:51;;;;;;;0.10;0.10;;;;;;;1.46;88.77;95536.06;5042763;28;20106;-62
2022/01/09 05:13:18;;;;;;;0.10;0.10;;;;;;;1.41;88.71;95558.94;5042434;28;20040;-62
2022/01/09 05:15:45;;;;;;;0.25;0.10;;;;;;;1.29;88.53;95561.66;5025135;28;20040;-63
2022/01/09 05:18:14;;;;;;;0.10;0.10;;;;;;;1.25;89.26;95571.16;5030120;28;20080;-62
2022/01/09 05:20:42;;;;;;;0.63;0.20;;;;;;;1.21;89.44;95574.56;5038122;28;20084;-62
2022/01/09 05:23:09;;;;;;;0.20;0.20;;;;;;;1.20;88.84;95588.91;5039844;28;20044;-63
2022/01/09 05:25:36;;;;;;;0.10;0.10;;;;;;;1.23;88.94;95591.94;5036786;28;20041;-62
2022/01/09 05:28:03;;;;;;;0.15;0.15;;;;;;;1.28;88.75;95593.88;5026657;28;20049;-62
2022/01/09 05:30:29;;;;;;;0.80;0.30;;;;;;;1.30;88.81;95605.13;5044206;28;20124;-63
2022/01/09 05:32:56;;;;;;;0.20;0.20;;;;;;;1.37;88.09;95605.78;5029141;28;20044;-63
2022/01/09 05:35:25;;;;;;;0.10;0.10;;;;;;;1.36;88.21;95612.19;5034727;28;20037;-62
2022/01/09 05:37:52;;;;;;;1.02;0.10;;;;;;;1.42;87.98;95626.44;5045790;28;20041;-63
2022/01/09 05:40:19;;;;;;;0.82;0.28;;;;;;;1.40;88.29;95621.31;5045499;28;20427;-62
2022/01/09 05:42:49;;;;;;;1.45;0.40;;;;;;;1.39;88.46;95622.38;5045390;28;20052;-63
2022/01/09 05:45:18;;;;;;;1.67;0.70;;;;;;;1.42;87.76;95634.44;5030378;28;20044;-62
2022/01/09 05:47:46;;;;;;;2.35;0.70;;;;;;;1.47;88.26;95641.72;5036231;28;20052;-62
2022/01/09 05:50:13;;;;;;;5.40;0.75;;;;;;;1.48;87.92;95640.69;5036759;28;20064;-62
2022/01/09 05:52:40;;;;;;;1.77;0.60;;;;;;;1.59;87.36;95661.19;5030591;28;20046;-62
2022/01/09 05:55:07;;;;;;;2.83;0.65;;;;;;;1.65;86.68;95649.56;5042063;28;20052;-62
2022/01/09 05:57:33;;;;;;;3.97;0.60;;;;;;;1.66;87.06;95663.72;5033773;28;20045;-63
2022/01/09 06:00:00;;;;;;;2.95;0.65;;;;;;;1.63;86.66;95664.19;5036129;28;20520;-62
2022/01/09 06:02:27;;;;;;;1.00;0.40;;;;;;;1.65;86.42;95691.41;5029784;28;20060;-62
2022/01/09 06:04:54;;;;;;;1.83;0.45;;;;;;;1.73;86.15;95684.91;5027845;28;20053;-63
2022/01/09 06:07:20;;;;;;;3.10;0.52;;;;;;;1.66;86.44;95685.06;5032974;28;20037;-63
2022/01/09 06:09:47;;;;;;;1.48;0.32;;;;;;;1.68;86.70;95689.09;5039248;28;20103;-63
2022/01/09 06:12:13;;;;;;;1.33;0.63;;;;;;;1.65;87.91;95689.56;5033616;28;20041;-63
2022/01/09 06:14:41;;;;;;;1.40;0.52;;;;;;;1.66;86.99;95714.41;5035871;28;20046;-62
2022/01/09 06:17:08;;;;;;;1.27;0.40;;;;;;;1.67;86.60;95719.47;5029507;28;20040;-63
2022/01/09 06:19:35;;;;;;;1.42;0.50;;;;;;;1.62;87.94;95719.38;5038800;28;20053;-63
2022/01/09 06:22:02;;;;;;;1.42;0.50;;;;;;;1.72;86.52;95729.47;5036207;28;20102;-63
2022/01/09 06:24:29;;;;;;;0.68;0.25;;;;;;;1.73;86.97;95730.28;5032859;28;20049;-63
2022/01/09 06:26:56;;;;;;;0.30;0.20;;;;;;;1.68;86.96;95739.81;5037237;28;20037;-63
2022/01/09 06:29:22;;;;;;;0.75;0.20;;;;;;;1.66;87.03;95749.88;5032596;28;20729;-63
2022/01/09 06:31:50;;;;;;;0.52;0.30;;;;;;;1.66;86.84;95747.22;5028597;28;20091;-63
2022/01/09 06:34:17;;;;;;;1.55;0.60;;;;;;;1.68;86.61;95742.47;5029030;28;20112;-63
2022/01/09 06:36:44;;;;;;;1.65;0.35;;;;;;;1.73;86.98;95762.31;5031286;28;20069;-62
2022/01/09 06:39:10;;;;;;;1.17;0.52;;;;;;;1.73;85.88;95805.00;5043540;28;20053;-62
2022/01/09 06:41:37;;;;;;;0.73;0.40;;;;;;;1.74;86.25;95779.94;5025729;28;20119;-62
2022/01/09 06:44:04;;;;;;;0.90;0.47;;;;;;;1.77;86.15;95766.91;5035369;28;20526;-63
2022/01/09 06:46:30;;;;;;;2.58;0.98;;;;;;;1.71;86.09;95764.38;5034034;28;20080;-62
2022/01/09 06:48:57;;;;;;;2.08;0.82;;;;;;;1.69;86.21;95783.28;5037750;28;20045;-63
2022/01/09 06:51:24;;;;;;;2.90;0.65;;;;;;;1.70;86.29;95779.59;5024074;28;20051;-62
2022/01/09 06:53:50;;;;;;;2.97;0.80;;;;;;;1.72;86.13;95787.34;5024997;28;20099;-62
2022/01/09 06:56:17;;;;;;;3.90;1.17;;;;;;;1.70;85.59;95795.59;5023779;28;20048;-62
2022/01/09 06:58:43;;;;;;;3.03;0.93;;;;;;;1.71;85.78;95807.91;5025120;28;20041;-62
2022/01/09 07:01:10;;;;;;;4.50;1.27;;;;;;;1.72;85.68;95808.69;5032443;28;20067;-62
2022/01/09 07:03:36;;;;;;;3.25;0.88;;;;;;;1.71;85.07;95821.25;5032141;28;20041;-62
2022/01/09 07:06:03;;;;;;;2.90;0.93;;;;;;;1.69;85.08;95836.66;5033840;28;20072;-62
2022/01/09 07:08:33;;;;;;;2.63;0.88;;;;;;;1.72;84.92;95817.53;5025269;28;20521;-62
2022/01/09 07:11:01;;;;;;;1.50;1.10;;;;;;;1.74;84.11;95827.97;5024720;28;20049;-62
2022/01/09 07:13:28;;;;;;;3.47;0.90;;;;;;;1.67;84.62;95809.41;5023134;28;20068;-63
2022/01/09 07:15:55;;;;;;;3.70;2.10;;;;;;;1.68;83.31;95838.53;5039752;28;20177;-63
2022/01/09 07:18:22;;;;;;;6.68;1.48;;;;;;;1.65;83.87;95838.16;5039668;28;20045;-63
2022/01/09 07:20:49;;;;;;;2.33;0.63;;;;;;;1.66;83.52;95848.59;5032780;28;20049;-62
2022/01/09 07:23:16;;;;;;;4.63;1.20;;;;;;;1.63;84.61;95849.09;5021775;28;20053;-63
2022/01/09 07:25:43;;;;;;;4.43;1.13;;;;;;;1.51;85.08;95881.09;5022652;28;20045;-62
2022/01/09 07:28:10;;;;;;;4.50;0.95;;;;;;;1.58;84.40;95872.19;5026879;28;20033;-63
2022/01/09 07:30:37;;;;;;;3.22;0.68;;;;;;;1.50;84.17;95892.81;5018321;28;20416;-63
2022/01/09 07:33:04;;;;;;;3.25;1.02;;;;;;;1.54;83.68;95895.81;5020613;28;20053;-63
2022/01/09 07:35:32;;;;;;;2.45;0.85;;;;;;;1.54;83.05;95893.97;5024264;28;20076;-63
2022/01/09 07:37:58;;;;;;;2.17;0.82;;;;;;;1.62;83.25;95902.69;5025670;28;20523;-64
2022/01/09 07:40:25;;;;;;;3.47;0.95;;;;;;;1.62;82.62;95914.16;5024209;28;20063;-64
2022/01/09 07:42:52;;;;;;;6.75;1.65;;;;;;;1.67;83.40;95916.94;5036279;28;20045;-64
2022/01/09 07:45:27;;;;;;;6.25;0.65;;;;;;;1.92;81.15;95925.78;5031865;28;20045;-65
2022/01/09 07:47:56;;;;;;;2.60;1.13;;;;;;;1.82;81.25;95934.38;5032257;28;20037;-65
2022/01/09 07:50:23;;;;;;;3.13;0.93;;;;;;;1.99;81.12;95963.84;5030590;28;20049;-66
2022/01/09 07:52:50;;;;;;;5.85;0.77;;;;;;;1.88;80.58;95930.75;5036944;28;20112;-65
2022/01/09 07:55:19;;;;;;;2.97;0.82;;;;;;;1.87;81.42;95947.81;5033506;28;20049;-65
2022/01/09 07:57:46;;;;;;;5.00;1.17;;;;;;;1.77;80.32;95956.41;5040139;28;20032;-63
2022/01/09 08:00:16;;;;;;;2.03;0.80;;;;;;;1.64;81.30;95949.44;5042596;28;20045;-63
2022/01/09 08:02:45;;;;;;;4.50;1.05;;;;;;;1.50;82.03;95964.84;5032510;28;20037;-63
2022/01/09 08:05:14;;;;;;;3.35;0.73;;;;;;;1.53;80.73;95968.91;5020836;28;20051;-63
2022/01/09 08:07:42;;;;;;;9.77;1.27;;;;;;;1.49;81.26;95970.41;5027617;28;20730;-65
2022/01/09 08:10:09;;;;;;;4.43;1.15;;;;;;;1.49;80.48;95973.88;5032102;28;20063;-63
2022/01/09 08:12:37;;;;;;;5.80;1.05;;;;;;;1.52;80.59;95980.63;5031588;28;20053;-64
2022/01/09 08:15:05;;;;;;;4.10;0.95;;;;;;;1.54;80.81;95976.69;5027952;28;20042;-63
2022/01/09 08:17:32;;;;;;;3.22;1.35;;;;;;;1.57;79.77;95980.75;5025033;28;20479;-63
2022/01/09 08:19:59;;;;;;;2.72;0.88;;;;;;;1.54;78.97;95986.53;5028014;28;20045;-63
2022/01/09 08:22:29;;;;;;;4.68;0.85;;;;;;;1.64;80.06;96002.81;5026421;28;20041;-61
2022/01/09 08:24:56;;;;;;;7.97;1.33;;;;;;;1.67;77.76;96007.66;5042208;28;20055;-60
2022/01/09 08:27:23;;;;;;;2.20;1.10;;;;;;;1.69;78.64;95989.59;5024063;28;20052;-61
2022/01/09 08:29:50;;;;;;;7.50;1.63;;;;;;;1.66;78.75;95995.38;5033168;28;20049;-61
2022/01/09 08:32:16;;;;;;;2.55;1.33;;;;;;;1.70;77.94;95993.06;5032127;28;20090;-62
2022/01/09 08:34:43;;;;;;;2.63;0.95;;;;;;;1.72;77.65;96003.50;5028982;28;20057;-63
2022/01/09 08:37:12;;;;;;;5.97;1.30;;;;;;;1.77;77.26;96008.97;5028840;28;20041;-63
2022/01/09 08:39:42;;;;;;;3.00;0.85;;;;;;;1.78;76.47;96000.75;5023273;28;20042;-63
2022/01/09 08:42:09;;;;;;;2.20;0.75;;;;;;;1.80;76.52;96022.66;5022661;28;20041;-62
2022/01/09 08:44:36;;;;;;;6.85;1.17;;;;;;;1.83;76.49;96013.38;5022932;28;20041;-63
2022/01/09 08:47:05;;;;;;;4.82;0.73;;;;;;;1.84;77.43;96023.00;5023041;28;20128;-63
2022/01/09 08:49:32;;;;;;;2.03;0.77;;;;;;;1.84;76.69;96023.00;5023994;28;20091;-60
2022/01/09 08:51:59;;;;;;;2.60;0.65;;;;;;;1.87;76.04;96035.09;5026259;28;20045;-61
2022/01/09 08:54:25;;;;;;;3.72;1.13;;;;;;;1.92;76.39;96040.56;5031177;28;20057;-61
2022/01/09 08:56:52;;;;;;;7.47;0.98;;;;;;;1.90;76.19;96056.81;5032816;28;20555;-62
2022/01/09 08:59:19;;;;;;;5.80;1.33;;;;;;;1.86;77.48;96052.97;5030255;28;20037;-62
2022/01/09 09:01:46;;;;;;;3.45;0.93;;;;;;;1.85;78.36;96070.03;5026444;28;20099;-65
2022/01/09 09:04:13;;;;;;;2.25;0.85;;;;;;;1.76;78.96;96061.53;5036526;28;20046;-66
2022/01/09 09:06:41;;;;;;;5.30;1.73;;;;;;;1.72;80.36;96070.22;5026997;28;20045;-66
2022/01/09 09:09:08;;;;;;;7.30;1.52;;;;;;;1.61;81.50;96083.28;5026665;28;20461;-64
2022/01/09 09:11:36;;;;;;;8.40;1.52;;;;;;;1.53;82.77;96083.63;5027097;28;20038;-61
2022/01/09 09:14:03;;;;;;;3.58;1.00;;;;;;;1.58;83.27;96082.94;5035826;28;20057;-62
2022/01/09 09:16:31;;;;;;;5.03;0.73;;;;;;;1.38;83.60;96086.69;5035097;28;20041;-61
2022/01/09 09:18:58;;;;;;;8.15;1.40;;;;;;;1.44;84.78;96085.78;5034804;28;20052;-62
2022/01/09 09:21:24;;;;;;;9.35;1.20;;;;;;;1.23;85.44;96103.91;5031027;28;20053;-61
2022/01/09 09:23:51;;;;;;;2.60;0.77;;;;;;;1.20;86.33;96106.16;5029692;28;20061;-61
2022/01/09 09:26:18;;;;;;;4.45;1.38;;;;;;;1.25;86.49;96111.69;5019836;28;20044;-61
2022/01/09 09:28:45;;;;;;;7.20;1.25;;;;;;;1.19;87.17;96109.88;5025452;28;20472;-61
2022/01/09 09:31:12;;;;;;;3.17;1.00;;;;;;;1.25;86.20;96107.13;5032079;28;20056;-61
2022/01/09 09:33:38;;;;;;;5.45;1.30;;;;;;;1.26;86.16;96110.63;5024780;28;20049;-61
2022/01/09 09:36:05;;;;;;;8.57;1.52;;;;;;;1.32;85.71;96109.72;5022763;28;20045;-61
2022/01/09 09:38:32;;;;;;;5.90;1.17;;;;;;;1.42;86.03;96114.53;5025308;28;20045;-62
2022/01/09 09:40:59;;;;;;;6.60;1.38;;;;;;;1.43;85.49;96118.81;5034239;28;20060;-61
2022/01/09 09:43:26;;;;;;;3.30;1.30;;;;;;;1.51;85.26;96123.06;5028332;28;20046;-61
2022/01/09 09:45:53;;;;;;;3.50;1.25;;;;;;;1.69;85.75;96107.00;5025815;28;20045;-61
2022/01/09 09:48:20;;;;;;;8.00;1.92;;;;;;;1.67;85.25;96110.94;5032719;28;20042;-62
2022/01/09 09:50:47;;;;;;;4.55;1.20;;;;;;;1.79;84.34;96121.66;5025671;28;20042;-62
2022/01/09 09:53:14;;;;;;;3.42;0.95;;;;;;;1.78;83.40;96128.03;5024005;28;20045;-62
2022/01/09 09:55:41;;;;;;;5.88;1.33;;;;;;;1.80;84.22;96128.59;5028283;28;20060;-62
2022/01/09 09:58:08;;;;;;;3.08;0.55;;;;;;;1.86;82.54;96134.91;5034068;28;20049;-61
2022/01/09 10:00:35;;;;;;;7.28;1.77;;;;;;;1.84;83.04;96140.47;5030330;28;20048;-62
2022/01/09 10:03:03;;;;;;;2.22;1.05;;;;;;;1.78;84.16;96136.88;5033146;28;20077;-61
2022/01/09 10:05:35;;;;;;;3.97;1.00;;;;;;;1.71;85.13;96129.97;5031676;28;20037;-62
2022/01/09 10:08:12;;;;;;;6.93;1.20;;;;;;;1.81;84.49;96138.25;5026767;28;20500;-61
2022/01/09 10:10:39;;;;;;;6.35;1.48;;;;;;;1.69;85.86;96148.88;5015988;28;20034;-61
2022/01/09 10:13:19;;;;;;;5.63;1.48;;;;;;;1.66;85.59;96149.34;5024328;28;20095;-61
2022/01/09 10:15:49;;;;;;;3.83;1.08;;;;;;;1.59;85.90;96151.28;5027469;28;20041;-61
2022/01/09 10:18:40;;;;;;;7.55;1.88;;;;;;;1.28;87.12;96165.38;5025670;28;20033;-63
2022/01/09 10:21:22;;;;;;;2.95;1.00;;;;;;;1.33;87.32;96154.03;5033060;28;20057;-64
2022/01/09 10:24:00;;;;;;;;;;;;;;;1.26;87.17;96139.97;5032342;28;20041;-62
2022/01/09 10:26:29;;;;;;;1.13;0.50;;;;;;;1.54;86.94;96154.59;5038895;28;19928;-64
2022/01/09 10:28:57;;;;;;;2.40;0.77;;;;;;;1.71;86.17;96162.00;5018889;28;20059;-61
2022/01/09 10:31:24;;;;;;;4.32;0.73;;;;;;;1.78;85.66;96168.91;5027290;28;20049;-61
2022/01/09 10:34:06;;;;;;;5.43;0.88;;;;;;;1.86;86.33;96174.94;5024956;28;20107;-61
2022/01/09 10:36:35;;;;;;;3.47;0.93;;;;;;;1.69;88.09;96163.03;5025828;28;20103;-62
2022/01/09 10:39:09;;;;;;;2.22;0.80;;;;;;;1.89;87.95;96172.66;5022179;28;20053;-62
2022/01/09 10:41:49;;;;;;;2.13;1.00;;;;;;;1.88;86.26;96171.00;5031106;28;20053;-60
2022/01/09 10:44:17;;;;;;;5.88;1.88;;;;;;;1.87;88.42;96176.56;5024971;28;20045;-62
2022/01/09 10:46:58;;;;;;;3.97;1.25;;;;;;;1.94;88.10;96179.97;5028953;28;20041;-63
2022/01/09 10:49:35;;;;;;;4.22;1.35;;;;;;;1.98;87.95;96175.00;5031425;28;20064;-63
2022/01/09 10:52:36;;;;;;;5.28;1.17;;;;;;;1.85;84.99;96175.97;5023147;28;20041;-64
2022/01/09 10:55:06;;;;;;;9.20;1.48;;;;;;;1.88;86.24;96176.34;5024926;28;20065;-62
2022/01/09 10:57:36;;;;;;;4.00;1.20;;;;;;;1.93;85.51;96171.16;5029348;28;20041;-62
2022/01/09 11:00:11;;;;;;;6.32;1.88;;;;;;;2.08;84.54;96173.41;5026862;28;20053;-63
2022/01/09 11:02:38;;;;;;;2.10;1.17;;;;;;;2.09;83.95;96166.19;5028080;28;20661;-63
2022/01/09 11:05:06;;;;;;;3.40;0.90;;;;;;;2.19;83.31;96177.16;5024025;28;20136;-64
2022/01/09 11:07:33;;;;;;;2.85;0.88;;;;;;;2.34;82.32;96178.59;5025567;28;20068;-64
2022/01/09 11:10:01;;;;;;;3.10;0.80;;;;;;;2.29;82.66;96183.81;5032702;28;20037;-64
2022/01/09 11:12:35;;;;;;;4.55;1.10;;;;;;;2.33;82.33;96176.97;5026185;28;20505;-66
2022/01/09 11:15:04;;;;;;;5.85;1.27;;;;;;;2.38;82.09;96182.44;5023559;28;20524;-63
2022/01/09 11:17:32;;;;;;;5.25;1.23;;;;;;;2.42;82.12;96186.28;5024363;28;20402;-62
2022/01/09 11:19:59;;;;;;;3.58;1.02;;;;;;;2.61;81.50;96183.50;5034818;28;20048;-65
2022/01/09 11:22:28;;;;;;;5.45;1.30;;;;;;;2.81;79.15;96183.22;5029444;28;20532;-64
2022/01/09 11:25:17;;;;;;;7.50;1.17;;;;;;;2.73;78.51;96181.66;5023106;28;20416;-64
2022/01/09 11:28:24;;;;;;;4.15;0.70;;;;;;;2.71;79.10;96181.09;5023436;28;20048;-64
2022/01/09 11:31:14;;;;;;;3.20;1.20;;;;;;;2.72;80.95;96177.38;5013359;28;20803;-64
2022/01/09 11:33:56;;;;;;;6.45;1.98;;;;;;;2.79;79.88;96174.59;5004201;28;20201;-64
2022/01/09 11:36:27;;;;;;;3.25;1.70;;;;;;;2.83;79.01;96177.59;5014224;28;20058;-63
2022/01/09 11:39:13;;;;;;;4.60;1.25;;;;;;;2.81;79.39;96188.56;5028255;28;20037;-64
2022/01/09 11:41:42;;;;;;;5.32;1.45;;;;;;;2.88;79.15;96167.03;5029746;28;20037;-63
2022/01/09 11:44:12;;;;;;;3.78;0.85;;;;;;;2.79;78.85;96173.75;5026769;28;20515;-62
2022/01/09 11:47:05;;;;;;;4.20;0.90;;;;;;;2.82;76.64;96173.31;5034287;28;20041;-64
2022/01/09 11:49:38;;;;;;;9.40;1.75;;;;;;;2.84;77.99;96176.56;5025874;28;20140;-64